Terminal Aerodrome Forecast
Issued by NWS Sterling, VA

Home | Current Version | Previous Version | Text Only | Print | Product List | Glossary On
Versions: 1 2 3 4 5 6 7 8 9 10 11 12 13 14 15
000
FTUS41 KLWX 171100
TAFMRB
TAF
KMRB 171139Z 1712/1812 09006KT P6SM SKC
     FM171500 13011KT P6SM FEW250
     FM180200 13007KT P6SM SCT250
     FM180600 VRB03KT P6SM BKN250
     FM180900 VRB03KT P6SM BKN025=

USA.gov is the U.S. government's official web portal to all federal, state and local government web resources and services.